Time;durP1;ratioP1;P1;durP2;ratioP2;P2;SDS_P1;SDS_P2;PMS_P1;PMS_P2;Temp;Humidity;BMP_temperature;BMP_pressure;BME280_temperature;BME280_humidity;BME280_pressure;Samples;Min_cycle;Max_cycle;Signal;HPM_P1;HPM_P2
2022/08/26 00:01:25;;;;;;;7.22;2.92;;;;;;;;;;7400361;19;20026;-74
2022/08/26 00:03:50;;;;;;;3.60;2.80;;;;;;;;;;7398913;19;20396;-75
2022/08/26 00:06:16;;;;;;;9.55;3.40;;;;;;;;;;7398581;19;20007;-75
2022/08/26 00:08:42;;;;;;;5.32;2.40;;;;;;;;;;7392243;19;20458;-75
2022/08/26 00:11:08;;;;;;;6.68;3.17;;;;;;;;;;7395600;19;20457;-76
2022/08/26 00:13:34;;;;;;;5.18;3.22;;;;;;;;;;7397357;19;20035;-74
2022/08/26 00:16:49;;;;;;;9.57;3.50;;;;;;;;;;7396670;19;20015;-75
2022/08/26 00:19:17;;;;;;;8.45;3.90;;;;;;;;;;7395509;19;20489;-73
2022/08/26 00:21:42;;;;;;;5.35;2.70;;;;;;;;;;7395606;19;20021;-75
2022/08/26 00:24:08;;;;;;;7.03;3.45;;;;;;;;;;7397518;19;20085;-75
2022/08/26 00:26:34;;;;;;;3.67;2.88;;;;;;;;;;7396920;19;20042;-74
2022/08/26 00:28:59;;;;;;;4.20;3.00;;;;;;;;;;7397732;19;20461;-75
2022/08/26 00:31:24;;;;;;;4.32;2.78;;;;;;;;;;7398218;19;20379;-74
2022/08/26 00:33:50;;;;;;;5.35;2.95;;;;;;;;;;7398897;19;20014;-74
2022/08/26 00:36:15;;;;;;;6.57;3.92;;;;;;;;;;7396992;19;20408;-74
2022/08/26 00:38:41;;;;;;;11.50;3.80;;;;;;;;;;7395395;19;20469;-75
2022/08/26 00:41:06;;;;;;;7.10;3.42;;;;;;;;;;7396048;19;20331;-75
2022/08/26 00:43:34;;;;;;;7.78;3.60;;;;;;;;;;7395534;19;20023;-74
2022/08/26 00:46:24;;;;;;;6.30;3.17;;;;;;;;;;7395959;19;20356;-75
2022/08/26 00:48:52;;;;;;;6.38;3.55;;;;;;;;;;7392501;19;20018;-75
2022/08/26 00:51:21;;;;;;;10.40;3.90;;;;;;;;;;7397603;19;20095;-74
2022/08/26 00:53:56;;;;;;;8.75;3.17;;;;;;;;;;7394207;19;20461;-74
2022/08/26 00:56:28;;;;;;;9.03;3.87;;;;;;;;;;7395250;19;20014;-75
2022/08/26 00:58:57;;;;;;;9.07;3.78;;;;;;;;;;7397003;19;20006;-75
2022/08/26 01:01:24;;;;;;;6.55;3.47;;;;;;;;;;7395771;19;20530;-74
2022/08/26 01:03:51;;;;;;;6.88;3.25;;;;;;;;;;7394755;19;20013;-75
2022/08/26 01:06:17;;;;;;;6.05;3.33;;;;;;;;;;7396205;19;20017;-75
2022/08/26 01:08:43;;;;;;;6.95;3.55;;;;;;;;;;7392998;19;20015;-74
2022/08/26 01:11:08;;;;;;;15.15;3.70;;;;;;;;;;7396347;19;20101;-74
2022/08/26 01:13:36;;;;;;;5.90;3.17;;;;;;;;;;7393120;19;20032;-75
2022/08/26 01:16:04;;;;;;;6.50;3.70;;;;;;;;;;7396799;19;20006;-74
2022/08/26 01:18:30;;;;;;;6.97;2.97;;;;;;;;;;7393600;19;20006;-75
2022/08/26 01:21:05;;;;;;;8.30;3.80;;;;;;;;;;7395115;19;20072;-75
2022/08/26 01:23:34;;;;;;;7.00;3.63;;;;;;;;;;7395892;19;20006;-75
2022/08/26 01:26:06;;;;;;;7.00;3.15;;;;;;;;;;7395392;19;20006;-77
2022/08/26 01:28:33;;;;;;;3.85;2.38;;;;;;;;;;7391326;19;20093;-74
2022/08/26 01:31:01;;;;;;;4.18;3.20;;;;;;;;;;7395218;19;20006;-74
2022/08/26 01:33:34;;;;;;;3.90;2.67;;;;;;;;;;7394456;19;20017;-75
2022/08/26 01:36:00;;;;;;;5.25;2.90;;;;;;;;;;7394504;19;20476;-75
2022/08/26 01:38:26;;;;;;;7.90;3.78;;;;;;;;;;7394605;19;19994;-74
2022/08/26 01:40:52;;;;;;;10.00;4.18;;;;;;;;;;7395936;19;20014;-74
2022/08/26 01:43:22;;;;;;;6.40;3.63;;;;;;;;;;7395693;19;20010;-74
2022/08/26 01:45:48;;;;;;;6.45;3.60;;;;;;;;;;7395440;19;19998;-74
2022/08/26 01:48:19;;;;;;;4.75;3.00;;;;;;;;;;7393599;19;20027;-75
2022/08/26 01:50:45;;;;;;;7.20;3.53;;;;;;;;;;7395963;19;20409;-75
2022/08/26 01:53:14;;;;;;;6.50;2.65;;;;;;;;;;7393781;19;20308;-75
2022/08/26 01:55:43;;;;;;;7.15;2.92;;;;;;;;;;7395648;19;20009;-74
2022/08/26 01:58:13;;;;;;;5.47;2.88;;;;;;;;;;7393432;19;20079;-74
2022/08/26 02:00:39;;;;;;;8.02;3.63;;;;;;;;;;7395869;19;19997;-74
2022/08/26 02:03:15;;;;;;;7.40;3.58;;;;;;;;;;7390606;19;19998;-74
2022/08/26 02:05:59;;;;;;;8.00;3.60;;;;;;;;;;7395097;19;20019;-75
2022/08/26 02:08:29;;;;;;;3.88;2.75;;;;;;;;;;7389838;19;20040;-75
2022/08/26 02:10:55;;;;;;;4.72;2.88;;;;;;;;;;7389464;19;20010;-75
2022/08/26 02:13:24;;;;;;;6.25;3.55;;;;;;;;;;7393773;19;20007;-74
2022/08/26 02:15:49;;;;;;;6.93;3.00;;;;;;;;;;7393912;19;20007;-75
2022/08/26 02:18:15;;;;;;;7.68;3.40;;;;;;;;;;7390993;19;20015;-75
2022/08/26 02:20:41;;;;;;;4.70;2.80;;;;;;;;;;7394962;19;20005;-75
2022/08/26 02:23:07;;;;;;;4.90;3.40;;;;;;;;;;7393594;19;20011;-75
2022/08/26 02:26:01;;;;;;;5.72;3.53;;;;;;;;;;7391588;19;20025;-74
2022/08/26 02:28:30;;;;;;;5.28;3.80;;;;;;;;;;7389762;19;20013;-74
2022/08/26 02:30:56;;;;;;;6.95;3.90;;;;;;;;;;7392930;19;20415;-75
2022/08/26 02:33:21;;;;;;;8.65;4.30;;;;;;;;;;7391805;19;20469;-74
2022/08/26 02:35:46;;;;;;;6.65;3.88;;;;;;;;;;7391715;19;20732;-74
2022/08/26 02:38:12;;;;;;;7.55;3.53;;;;;;;;;;7393995;19;20002;-75
2022/08/26 02:40:40;;;;;;;8.82;3.80;;;;;;;;;;7392165;19;20483;-75
2022/08/26 02:43:06;;;;;;;4.55;3.40;;;;;;;;;;7393595;19;20037;-74
2022/08/26 02:45:32;;;;;;;5.10;3.58;;;;;;;;;;7392555;19;20446;-75
2022/08/26 02:47:58;;;;;;;9.23;3.60;;;;;;;;;;7388925;19;20031;-74
2022/08/26 02:50:24;;;;;;;5.63;3.22;;;;;;;;;;7391773;19;20006;-74
2022/08/26 02:52:50;;;;;;;4.00;2.85;;;;;;;;;;7393596;19;20473;-76
2022/08/26 02:55:16;;;;;;;3.42;2.40;;;;;;;;;;7394570;19;20017;-75
2022/08/26 02:57:41;;;;;;;7.13;3.08;;;;;;;;;;7388282;19;20033;-74
2022/08/26 03:00:08;;;;;;;6.05;3.17;;;;;;;;;;7392974;19;19997;-74
2022/08/26 03:02:34;;;;;;;6.90;2.42;;;;;;;;;;7393935;19;20011;-74
2022/08/26 03:04:59;;;;;;;7.78;3.95;;;;;;;;;;7391093;19;20501;-74
2022/08/26 03:07:25;;;;;;;5.45;3.78;;;;;;;;;;7391787;19;20022;-74
2022/08/26 03:09:51;;;;;;;4.65;3.65;;;;;;;;;;7391568;19;19998;-74
2022/08/26 03:12:17;;;;;;;8.02;4.05;;;;;;;;;;7394049;19;20011;-75
2022/08/26 03:14:43;;;;;;;5.53;3.72;;;;;;;;;;7392396;19;20479;-74
2022/08/26 03:17:08;;;;;;;11.45;4.45;;;;;;;;;;7392999;19;20014;-74
2022/08/26 03:19:33;;;;;;;6.15;3.65;;;;;;;;;;7397117;19;20011;-74
2022/08/26 03:21:58;;;;;;;8.10;3.67;;;;;;;;;;7399871;19;20385;-75
2022/08/26 03:24:25;;;;;;;6.95;3.85;;;;;;;;;;7397686;19;20393;-74
2022/08/26 03:26:50;;;;;;;5.30;3.63;;;;;;;;;;7399199;19;20003;-74
2022/08/26 03:32:00;;;;;;;5.80;4.43;;;;;;;;;;7399800;19;20013;-74
2022/08/26 03:34:26;;;;;;;9.55;4.82;;;;;;;;;;7397629;19;20014;-75
2022/08/26 03:36:52;;;;;;;9.63;4.93;;;;;;;;;;7398587;19;19995;-74
2022/08/26 03:39:17;;;;;;;9.50;4.00;;;;;;;;;;7397416;19;20469;-74
2022/08/26 03:41:46;;;;;;;6.35;3.95;;;;;;;;;;7396608;19;20005;-75
2022/08/26 03:44:12;;;;;;;7.25;4.07;;;;;;;;;;7397954;19;20141;-75
2022/08/26 03:46:37;;;;;;;7.25;3.28;;;;;;;;;;7396648;19;20458;-76
2022/08/26 03:49:06;;;;;;;10.77;4.07;;;;;;;;;;7397812;19;20027;-74
2022/08/26 03:51:33;;;;;;;8.63;4.03;;;;;;;;;;7397454;19;20452;-74
2022/08/26 03:53:59;;;;;;;5.53;3.83;;;;;;;;;;7398650;19;20015;-74
2022/08/26 03:56:26;;;;;;;3.85;2.90;;;;;;;;;;7397666;19;19991;-74
2022/08/26 03:58:52;;;;;;;9.52;3.95;;;;;;;;;;7398705;19;20340;-73
2022/08/26 04:01:17;;;;;;;11.07;4.07;;;;;;;;;;7397483;19;19990;-75
2022/08/26 04:03:58;;;;;;;11.95;4.13;;;;;;;;;;7397758;19;20094;-74
2022/08/26 04:06:38;;;;;;;5.78;3.45;;;;;;;;;;7398854;19;19994;-74
2022/08/26 04:09:07;;;;;;;6.93;4.05;;;;;;;;;;7397955;19;20023;-74
2022/08/26 04:11:35;;;;;;;4.47;3.05;;;;;;;;;;7397726;19;19998;-74
2022/08/26 04:14:03;;;;;;;6.10;2.78;;;;;;;;;;7395739;19;19998;-74
2022/08/26 04:16:28;;;;;;;7.00;3.55;;;;;;;;;;7396730;19;20010;-74
2022/08/26 04:18:55;;;;;;;6.95;2.95;;;;;;;;;;7396629;19;20001;-74
2022/08/26 04:21:21;;;;;;;2.60;2.03;;;;;;;;;;7393621;19;20062;-74
2022/08/26 04:23:49;;;;;;;4.55;2.30;;;;;;;;;;7398886;19;19995;-74
2022/08/26 04:26:16;;;;;;;6.38;3.50;;;;;;;;;;7395435;19;20007;-75
2022/08/26 04:28:42;;;;;;;4.65;3.00;;;;;;;;;;7394783;19;20014;-74
2022/08/26 04:31:13;;;;;;;8.60;3.15;;;;;;;;;;7393818;19;20463;-74
2022/08/26 04:33:39;;;;;;;6.90;3.67;;;;;;;;;;7396688;19;20026;-75
2022/08/26 04:36:04;;;;;;;7.00;3.55;;;;;;;;;;7395664;19;20019;-74
2022/08/26 04:38:30;;;;;;;5.32;3.63;;;;;;;;;;7398277;19;20066;-74
2022/08/26 04:40:56;;;;;;;4.55;3.22;;;;;;;;;;7393458;19;20414;-74
2022/08/26 04:43:27;;;;;;;6.63;3.15;;;;;;;;;;7397962;19;20014;-74
2022/08/26 04:45:53;;;;;;;6.70;3.65;;;;;;;;;;7393451;19;19995;-75
2022/08/26 04:48:18;;;;;;;5.30;2.80;;;;;;;;;;7395687;19;20049;-74
2022/08/26 04:50:44;;;;;;;7.65;3.90;;;;;;;;;;7397654;19;19995;-74
2022/08/26 04:53:09;;;;;;;3.78;3.13;;;;;;;;;;7397391;19;20009;-74
2022/08/26 04:55:34;;;;;;;7.07;3.53;;;;;;;;;;7396809;19;20058;-74
2022/08/26 04:58:00;;;;;;;6.20;2.97;;;;;;;;;;7392654;19;20037;-74
2022/08/26 05:00:25;;;;;;;8.70;4.30;;;;;;;;;;7398112;19;20302;-75
2022/08/26 05:02:50;;;;;;;4.13;2.95;;;;;;;;;;7395337;19;20497;-74
2022/08/26 05:05:16;;;;;;;6.03;3.00;;;;;;;;;;7392082;19;20007;-74
2022/08/26 05:07:41;;;;;;;4.22;3.08;;;;;;;;;;7388187;19;20017;-75
2022/08/26 05:10:08;;;;;;;6.65;3.60;;;;;;;;;;7391012;19;20006;-75
2022/08/26 05:12:33;;;;;;;7.95;3.40;;;;;;;;;;7397207;19;20042;-75
2022/08/26 05:14:59;;;;;;;7.70;4.57;;;;;;;;;;7398746;19;20002;-74
2022/08/26 05:17:26;;;;;;;5.30;3.90;;;;;;;;;;7397416;19;20024;-77
2022/08/26 05:19:51;;;;;;;5.32;3.42;;;;;;;;;;7402612;19;20034;-77
2022/08/26 05:22:17;;;;;;;5.28;3.00;;;;;;;;;;7401733;19;20023;-76
2022/08/26 05:24:42;;;;;;;5.05;3.40;;;;;;;;;;7395397;19;20013;-75
2022/08/26 05:27:08;;;;;;;5.78;3.20;;;;;;;;;;7394187;19;20311;-73
2022/08/26 05:40:44;;;;;;;7.63;4.53;;;;;;;;;;7335862;19;19915;-79
2022/08/26 05:45:48;;;;;;;9.38;4.05;;;;;;;;;;7372438;19;20419;-78
2022/08/26 05:48:18;;;;;;;7.90;3.65;;;;;;;;;;7394456;19;20035;-77
2022/08/26 05:50:47;;;;;;;6.75;4.53;;;;;;;;;;7397192;19;20296;-78
2022/08/26 05:53:14;;;;;;;8.30;3.50;;;;;;;;;;7396365;19;20678;-77
2022/08/26 05:55:49;;;;;;;7.40;3.85;;;;;;;;;;7395764;19;19999;-76
2022/08/26 05:58:18;;;;;;;8.60;4.30;;;;;;;;;;7397122;19;20477;-75
2022/08/26 06:00:44;;;;;;;9.27;5.15;;;;;;;;;;7391905;19;20363;-78
2022/08/26 06:03:10;;;;;;;10.13;4.72;;;;;;;;;;7395705;19;20478;-76
2022/08/26 06:05:39;;;;;;;8.43;4.50;;;;;;;;;;7388833;19;19995;-76
2022/08/26 06:08:12;;;;;;;12.60;4.65;;;;;;;;;;7394018;19;20100;-76
2022/08/26 06:10:54;;;;;;;7.82;3.95;;;;;;;;;;7398867;19;20024;-77
2022/08/26 06:13:25;;;;;;;9.20;4.45;;;;;;;;;;7394971;19;20014;-77
2022/08/26 06:15:51;;;;;;;9.93;4.88;;;;;;;;;;7396092;19;20006;-76
2022/08/26 06:18:20;;;;;;;4.60;3.75;;;;;;;;;;7396363;19;20312;-75
2022/08/26 06:20:49;;;;;;;6.47;3.72;;;;;;;;;;7394162;19;20641;-76
2022/08/26 06:26:02;;;;;;;4.97;3.35;;;;;;;;;;7394951;19;20023;-76
2022/08/26 06:28:28;;;;;;;17.65;5.30;;;;;;;;;;7395016;19;20010;-77
2022/08/26 06:30:54;;;;;;;11.30;4.57;;;;;;;;;;7396703;19;20013;-78
2022/08/26 06:33:20;;;;;;;8.45;5.43;;;;;;;;;;7396231;19;20030;-78
2022/08/26 06:35:47;;;;;;;9.30;4.53;;;;;;;;;;7391462;19;20022;-77
2022/08/26 06:38:14;;;;;;;6.88;4.68;;;;;;;;;;7395447;19;20006;-76
2022/08/26 06:40:51;;;;;;;6.22;4.57;;;;;;;;;;7394982;19;20490;-76
2022/08/26 06:43:19;;;;;;;10.52;4.53;;;;;;;;;;7395247;19;20002;-77
2022/08/26 06:45:44;;;;;;;6.80;4.85;;;;;;;;;;7394185;19;20018;-75
2022/08/26 06:48:12;;;;;;;6.70;4.57;;;;;;;;;;7394312;19;20023;-77
2022/08/26 06:50:38;;;;;;;9.20;5.43;;;;;;;;;;7394329;19;20585;-77
2022/08/26 06:53:03;;;;;;;8.60;4.90;;;;;;;;;;7391658;19;20015;-77
2022/08/26 06:55:28;;;;;;;9.23;5.65;;;;;;;;;;7393413;19;20337;-77
2022/08/26 06:57:55;;;;;;;8.18;5.00;;;;;;;;;;7396609;19;19990;-76
2022/08/26 07:00:21;;;;;;;13.85;6.30;;;;;;;;;;7393149;19;20010;-77
2022/08/26 07:02:46;;;;;;;9.02;5.88;;;;;;;;;;7393180;19;20011;-76
2022/08/26 07:05:12;;;;;;;11.80;5.93;;;;;;;;;;7392926;19;20058;-76
2022/08/26 07:07:37;;;;;;;11.15;6.22;;;;;;;;;;7394475;19;20027;-77
2022/08/26 07:10:04;;;;;;;13.85;6.43;;;;;;;;;;7392067;19;20021;-77
2022/08/26 07:12:29;;;;;;;9.57;6.15;;;;;;;;;;7395788;19;20010;-77
2022/08/26 07:14:54;;;;;;;11.20;6.55;;;;;;;;;;7394634;19;20022;-76
2022/08/26 07:17:20;;;;;;;13.20;6.22;;;;;;;;;;7394937;19;20013;-77
2022/08/26 07:19:45;;;;;;;9.90;6.03;;;;;;;;;;7394710;19;20446;-77
2022/08/26 07:22:11;;;;;;;22.27;6.70;;;;;;;;;;7396265;19;20031;-76
2022/08/26 07:24:41;;;;;;;11.57;6.65;;;;;;;;;;7394808;19;20354;-77
2022/08/26 07:27:10;;;;;;;12.90;6.30;;;;;;;;;;7395307;19;20520;-77
2022/08/26 07:29:37;;;;;;;11.18;6.50;;;;;;;;;;7395704;19;20017;-78
2022/08/26 07:32:03;;;;;;;11.82;6.53;;;;;;;;;;7393527;19;20010;-76
2022/08/26 07:34:30;;;;;;;12.18;6.28;;;;;;;;;;7391075;19;20036;-78
2022/08/26 07:36:55;;;;;;;14.63;7.07;;;;;;;;;;7394842;19;20031;-77
2022/08/26 07:39:21;;;;;;;13.50;5.90;;;;;;;;;;7391633;19;20041;-78
2022/08/26 07:41:46;;;;;;;12.80;6.15;;;;;;;;;;7396700;19;20015;-76
2022/08/26 07:44:46;;;;;;;9.63;5.05;;;;;;;;;;7389219;19;20006;-76
2022/08/26 07:47:15;;;;;;;11.73;6.93;;;;;;;;;;7388821;19;20020;-76
2022/08/26 07:49:49;;;;;;;10.73;6.40;;;;;;;;;;7394657;19;20387;-76
2022/08/26 07:52:15;;;;;;;12.38;6.50;;;;;;;;;;7393365;19;20071;-76
2022/08/26 07:54:40;;;;;;;8.48;4.65;;;;;;;;;;7389414;19;20006;-76
2022/08/26 07:57:06;;;;;;;11.88;6.43;;;;;;;;;;7390067;19;20003;-76
2022/08/26 07:59:32;;;;;;;11.93;5.85;;;;;;;;;;7390419;19;20349;-75
2022/08/26 08:01:58;;;;;;;8.60;5.72;;;;;;;;;;7389444;19;20018;-76
2022/08/26 08:04:24;;;;;;;9.95;5.50;;;;;;;;;;7395051;19;20368;-76
2022/08/26 08:06:49;;;;;;;9.95;6.10;;;;;;;;;;7401317;19;20021;-77
2022/08/26 08:09:15;;;;;;;8.48;5.53;;;;;;;;;;7398422;19;20343;-76
2022/08/26 08:11:40;;;;;;;11.75;6.00;;;;;;;;;;7398599;19;20363;-76
2022/08/26 08:14:06;;;;;;;7.43;5.22;;;;;;;;;;7398681;19;20006;-76
2022/08/26 08:16:33;;;;;;;8.23;5.13;;;;;;;;;;7400479;19;20466;-76
2022/08/26 08:18:58;;;;;;;7.35;5.32;;;;;;;;;;7398956;19;20003;-76
2022/08/26 08:21:24;;;;;;;7.72;5.53;;;;;;;;;;7398732;19;20010;-76
2022/08/26 08:23:52;;;;;;;9.57;5.38;;;;;;;;;;7398825;19;20006;-76
2022/08/26 08:26:17;;;;;;;10.27;5.22;;;;;;;;;;7392963;19;20010;-76
2022/08/26 08:28:43;;;;;;;7.82;5.72;;;;;;;;;;7393688;19;20283;-77
2022/08/26 08:31:08;;;;;;;11.60;5.20;;;;;;;;;;7397020;19;20014;-76
2022/08/26 08:33:34;;;;;;;12.43;5.53;;;;;;;;;;7397335;19;20026;-77
2022/08/26 08:36:00;;;;;;;9.43;5.72;;;;;;;;;;7398168;19;20002;-76
2022/08/26 08:38:26;;;;;;;7.57;5.82;;;;;;;;;;7397343;19;20013;-76
2022/08/26 08:40:52;;;;;;;13.05;5.57;;;;;;;;;;7398639;19;20011;-77
2022/08/26 08:43:40;;;;;;;10.02;5.13;;;;;;;;;;7398240;19;20464;-77
2022/08/26 08:46:15;;;;;;;13.18;5.80;;;;;;;;;;7394365;19;20003;-77
2022/08/26 08:48:45;;;;;;;12.50;5.78;;;;;;;;;;7392526;19;20031;-77
2022/08/26 08:51:23;;;;;;;12.23;6.45;;;;;;;;;;7397107;19;19995;-77
2022/08/26 08:53:52;;;;;;;10.98;5.68;;;;;;;;;;7396502;19;20013;-77
2022/08/26 08:56:27;;;;;;;7.15;4.75;;;;;;;;;;7392539;19;20006;-77
2022/08/26 08:59:02;;;;;;;11.90;5.18;;;;;;;;;;7393512;19;20010;-76
2022/08/26 09:01:40;;;;;;;8.07;4.10;;;;;;;;;;7394746;19;20011;-77
2022/08/26 09:04:17;;;;;;;10.43;3.90;;;;;;;;;;7391039;19;20070;-76
2022/08/26 09:06:44;;;;;;;7.88;3.92;;;;;;;;;;7393321;19;20005;-76
2022/08/26 09:09:19;;;;;;;10.40;4.63;;;;;;;;;;7392085;19;20091;-76
2022/08/26 09:11:44;;;;;;;8.52;5.35;;;;;;;;;;7395521;19;20042;-76
2022/08/26 09:14:10;;;;;;;10.00;4.43;;;;;;;;;;7394441;19;20066;-77
2022/08/26 09:16:50;;;;;;;8.52;4.68;;;;;;;;;;7394033;19;20002;-76
2022/08/26 09:19:32;;;;;;;11.48;4.95;;;;;;;;;;7393611;19;20007;-76
2022/08/26 09:21:59;;;;;;;9.90;4.07;;;;;;;;;;7394897;19;20007;-77
2022/08/26 09:24:26;;;;;;;6.95;4.53;;;;;;;;;;7396442;19;20372;-76
2022/08/26 09:26:55;;;;;;;6.53;4.13;;;;;;;;;;7403725;19;20005;-81
2022/08/26 09:29:28;;;;;;;12.32;5.00;;;;;;;;;;7408271;19;20058;-81
2022/08/26 09:32:23;;;;;;;8.18;5.00;;;;;;;;;;7408858;19;19986;-80
2022/08/26 09:34:59;;;;;;;;;;;;;;;;;;7404616;19;20075;-80
2022/08/26 09:37:42;;;;;;;;;;;;;;;;;;7405871;19;19930;-79
2022/08/26 09:40:28;;;;;;;5.78;3.97;;;;;;;;;;7406848;19;19915;-79
2022/08/26 09:43:15;;;;;;;6.82;4.03;;;;;;;;;;7401642;19;20022;-79
2022/08/26 09:45:44;;;;;;;9.65;4.32;;;;;;;;;;7403694;19;20062;-79
2022/08/26 09:48:10;;;;;;;7.18;3.90;;;;;;;;;;7400614;19;20036;-79
2022/08/26 09:50:47;;;;;;;8.35;4.20;;;;;;;;;;7401203;19;20010;-77
2022/08/26 09:53:20;;;;;;;11.52;4.70;;;;;;;;;;7400665;19;20010;-78
2022/08/26 09:55:47;;;;;;;8.65;4.20;;;;;;;;;;7395354;19;20003;-77
2022/08/26 09:58:32;;;;;;;19.10;4.63;;;;;;;;;;7399532;19;20020;-78
2022/08/26 10:01:00;;;;;;;5.13;3.25;;;;;;;;;;7399265;19;20078;-80
2022/08/26 10:03:32;;;;;;;11.13;5.03;;;;;;;;;;7400791;19;20034;-82
2022/08/26 10:06:16;;;;;;;11.32;4.28;;;;;;;;;;7402724;19;20009;-79
2022/08/26 10:08:46;;;;;;;7.45;3.08;;;;;;;;;;7396885;19;20424;-79
2022/08/26 10:11:35;;;;;;;5.45;3.17;;;;;;;;;;7399746;19;20002;-79
2022/08/26 10:14:06;;;;;;;11.23;3.30;;;;;;;;;;7399510;19;19995;-79
2022/08/26 10:17:02;;;;;;;8.50;3.45;;;;;;;;;;7399818;19;20035;-78
2022/08/26 10:19:32;;;;;;;;;;;;;;;;;;7401179;19;20054;-79
2022/08/26 10:22:11;;;;;;;5.53;2.67;;;;;;;;;;7401769;19;19915;-80
2022/08/26 10:24:40;;;;;;;5.38;3.20;;;;;;;;;;7399474;19;20023;-78
2022/08/26 10:27:32;;;;;;;5.63;3.08;;;;;;;;;;7395935;19;20031;-77
2022/08/26 10:30:18;;;;;;;11.18;3.78;;;;;;;;;;7399294;19;20021;-78
2022/08/26 10:33:02;;;;;;;4.13;2.97;;;;;;;;;;7401407;19;20013;-79
2022/08/26 10:35:29;;;;;;;4.25;3.10;;;;;;;;;;7399569;19;20003;-78
2022/08/26 10:38:00;;;;;;;8.73;3.28;;;;;;;;;;7399659;19;20017;-78
2022/08/26 10:40:41;;;;;;;14.40;4.53;;;;;;;;;;7398519;19;20431;-79
2022/08/26 10:43:17;;;;;;;15.65;3.80;;;;;;;;;;7396984;19;20031;-78
2022/08/26 10:45:50;;;;;;;9.27;4.50;;;;;;;;;;7390979;19;19998;-78
2022/08/26 10:48:21;;;;;;;15.98;4.18;;;;;;;;;;7396640;19;20007;-78
2022/08/26 10:50:47;;;;;;;7.05;3.33;;;;;;;;;;7391914;19;20023;-77
2022/08/26 10:53:18;;;;;;;6.78;3.20;;;;;;;;;;7394387;19;20354;-78
2022/08/26 10:55:57;;;;;;;236.25;14.50;;;;;;;;;;7393373;19;19991;-76
2022/08/26 10:58:22;;;;;;;1286.32;116.72;;;;;;;;;;7393397;19;20007;-77
2022/08/26 11:04:12;;;;;;;88.38;7.88;;;;;;;;;;7393792;19;20040;-77
2022/08/26 11:06:39;;;;;;;9.35;3.47;;;;;;;;;;7393083;19;20070;-78
2022/08/26 11:09:07;;;;;;;9.65;3.40;;;;;;;;;;7391515;19;20129;-76
2022/08/26 11:11:38;;;;;;;8.13;3.13;;;;;;;;;;7391591;19;20003;-77
2022/08/26 11:14:06;;;;;;;8.27;2.95;;;;;;;;;;7393477;19;20007;-76
2022/08/26 11:17:01;;;;;;;5.45;2.83;;;;;;;;;;7390225;19;20026;-77
2022/08/26 11:19:39;;;;;;;5.15;2.47;;;;;;;;;;7386003;19;20015;-77
2022/08/26 11:22:08;;;;;;;5.35;2.83;;;;;;;;;;7391764;19;20010;-77
2022/08/26 11:24:59;;;;;;;6.35;3.28;;;;;;;;;;7388351;19;20465;-77
2022/08/26 11:27:27;;;;;;;8.38;3.03;;;;;;;;;;7391310;19;20653;-77
2022/08/26 11:30:18;;;;;;;8.73;3.20;;;;;;;;;;7391998;19;20067;-77
2022/08/26 11:32:50;;;;;;;5.75;2.78;;;;;;;;;;7389641;19;20026;-77
2022/08/26 11:35:15;;;;;;;8.10;3.38;;;;;;;;;;7390980;19;20015;-78
2022/08/26 11:37:47;;;;;;;8.93;2.58;;;;;;;;;;7392189;19;19999;-78
2022/08/26 11:40:37;;;;;;;9.45;2.78;;;;;;;;;;7396375;19;20023;-76
2022/08/26 11:43:07;;;;;;;7.72;2.60;;;;;;;;;;7398815;19;20031;-77
2022/08/26 11:45:42;;;;;;;4.75;2.53;;;;;;;;;;7394724;19;20672;-77
2022/08/26 11:48:19;;;;;;;9.80;3.20;;;;;;;;;;7396948;19;20005;-77
2022/08/26 11:50:54;;;;;;;5.50;2.90;;;;;;;;;;7397819;19;20010;-77
2022/08/26 11:53:21;;;;;;;8.35;2.83;;;;;;;;;;7397369;19;20316;-75
2022/08/26 11:55:48;;;;;;;10.20;2.78;;;;;;;;;;7396735;19;20014;-75
2022/08/26 11:58:14;;;;;;;4.53;2.70;;;;;;;;;;7395932;19;20002;-75
2022/08/26 12:00:42;;;;;;;5.38;2.80;;;;;;;;;;7395589;19;20300;-80
2022/08/26 12:03:16;;;;;;;4.13;2.55;;;;;;;;;;7402285;19;19998;-78
2022/08/26 12:05:45;;;;;;;5.43;2.72;;;;;;;;;;7396760;19;20032;-78
2022/08/26 12:08:15;;;;;;;7.22;2.63;;;;;;;;;;7401802;19;20019;-78
2022/08/26 12:10:40;;;;;;;12.68;2.70;;;;;;;;;;7401749;19;20010;-79
2022/08/26 12:13:06;;;;;;;4.85;2.38;;;;;;;;;;7403474;19;20328;-81
2022/08/26 12:15:33;;;;;;;9.77;2.80;;;;;;;;;;7404334;19;20003;-79
2022/08/26 12:18:17;;;;;;;5.57;2.50;;;;;;;;;;7405351;19;19999;-80
2022/08/26 12:20:46;;;;;;;8.00;2.40;;;;;;;;;;7404555;19;20039;-80
2022/08/26 12:23:33;;;;;;;3.33;2.03;;;;;;;;;;7404751;19;20114;-77
2022/08/26 12:26:45;;;;;;;9.93;2.72;;;;;;;;;;7392914;19;20002;-77
2022/08/26 12:29:26;;;;;;;9.98;2.42;;;;;;;;;;7392823;19;20424;-76
2022/08/26 12:32:06;;;;;;;5.03;2.47;;;;;;;;;;7398521;19;20027;-76
2022/08/26 12:34:32;;;;;;;6.07;2.42;;;;;;;;;;7398267;19;20047;-77
2022/08/26 12:36:58;;;;;;;5.63;2.28;;;;;;;;;;7398361;19;19994;-77
2022/08/26 12:39:36;;;;;;;8.85;2.47;;;;;;;;;;7396244;19;20018;-77
2022/08/26 12:42:05;;;;;;;4.68;2.50;;;;;;;;;;7398766;19;20014;-77
2022/08/26 12:44:31;;;;;;;4.68;2.42;;;;;;;;;;7396644;19;20040;-77
2022/08/26 12:47:07;;;;;;;8.40;2.75;;;;;;;;;;7397084;19;20003;-79
2022/08/26 12:49:35;;;;;;;5.25;2.42;;;;;;;;;;7397040;19;20025;-77
2022/08/26 12:52:00;;;;;;;4.57;2.15;;;;;;;;;;7396388;19;20082;-78
2022/08/26 12:54:57;;;;;;;6.22;2.55;;;;;;;;;;7394607;19;20471;-77
2022/08/26 12:57:12;;;;;;;3.75;2.20;;;;;;;;;;7395611;19;20011;-78
2022/08/26 12:59:38;;;;;;;3.88;2.50;;;;;;;;;;7395338;19;20676;-77
2022/08/26 13:02:03;;;;;;;3.92;2.83;;;;;;;;;;7397508;19;20002;-79
2022/08/26 13:04:40;;;;;;;5.05;2.67;;;;;;;;;;7400899;19;20007;-77
2022/08/26 13:07:13;;;;;;;3.95;2.25;;;;;;;;;;7401785;19;20026;-79
2022/08/26 13:09:39;;;;;;;9.82;2.28;;;;;;;;;;7400621;19;20014;-77
2022/08/26 13:12:04;;;;;;;20.95;2.53;;;;;;;;;;7402785;19;20061;-78
2022/08/26 13:14:30;;;;;;;14.13;3.10;;;;;;;;;;7400137;19;20037;-78
2022/08/26 13:16:55;;;;;;;6.38;2.63;;;;;;;;;;7398313;19;20066;-78
2022/08/26 13:19:24;;;;;;;22.70;3.15;;;;;;;;;;7400559;19;20011;-78
2022/08/26 13:21:52;;;;;;;13.93;2.35;;;;;;;;;;7402927;19;20023;-79
2022/08/26 13:24:38;;;;;;;5.80;2.20;;;;;;;;;;7407792;19;20014;-81
2022/08/26 13:27:05;;;;;;;3.95;2.50;;;;;;;;;;7397887;19;20010;-78
2022/08/26 13:29:31;;;;;;;4.57;2.35;;;;;;;;;;7396137;19;20420;-77
2022/08/26 13:31:56;;;;;;;9.23;2.80;;;;;;;;;;7396068;19;20022;-76
2022/08/26 13:34:22;;;;;;;6.68;2.40;;;;;;;;;;7394500;19;20482;-77
2022/08/26 13:36:50;;;;;;;4.95;2.20;;;;;;;;;;7397987;19;20010;-77
2022/08/26 13:39:17;;;;;;;2.30;1.75;;;;;;;;;;7398659;19;20018;-77
2022/08/26 13:41:42;;;;;;;3.90;2.20;;;;;;;;;;7396465;19;20022;-79
2022/08/26 13:44:08;;;;;;;2.83;2.05;;;;;;;;;;7398087;19;20007;-78
2022/08/26 13:46:34;;;;;;;4.50;2.10;;;;;;;;;;7396504;19;20025;-78
2022/08/26 13:48:59;;;;;;;3.53;1.80;;;;;;;;;;7397151;19;20007;-78
2022/08/26 13:51:26;;;;;;;10.18;3.00;;;;;;;;;;7395138;19;20018;-79
2022/08/26 13:53:52;;;;;;;9.20;3.70;;;;;;;;;;7394981;19;19987;-78
2022/08/26 13:56:19;;;;;;;6.95;3.25;;;;;;;;;;7391822;19;20035;-78
2022/08/26 13:58:44;;;;;;;7.15;2.90;;;;;;;;;;7396156;19;20006;-79
2022/08/26 14:01:10;;;;;;;7.70;2.75;;;;;;;;;;7392408;19;20007;-78
2022/08/26 14:03:36;;;;;;;5.22;2.55;;;;;;;;;;7394053;19;20014;-77
2022/08/26 14:06:01;;;;;;;8.15;3.40;;;;;;;;;;7394651;19;20617;-77
2022/08/26 14:08:27;;;;;;;7.85;2.90;;;;;;;;;;7395639;19;20014;-77
2022/08/26 14:10:52;;;;;;;6.68;2.90;;;;;;;;;;7407473;19;20015;-82
2022/08/26 14:13:18;;;;;;;10.95;3.28;;;;;;;;;;7412095;19;19998;-79
2022/08/26 14:15:44;;;;;;;3.90;2.63;;;;;;;;;;7394884;19;20023;-77
2022/08/26 14:18:12;;;;;;;8.52;3.00;;;;;;;;;;7396176;19;20011;-77
2022/08/26 14:20:38;;;;;;;10.60;2.83;;;;;;;;;;7392939;19;19998;-77
2022/08/26 14:23:03;;;;;;;7.20;2.70;;;;;;;;;;7399894;19;20058;-78
2022/08/26 14:25:29;;;;;;;7.38;2.97;;;;;;;;;;7396413;19;20010;-78
2022/08/26 14:27:58;;;;;;;4.10;2.55;;;;;;;;;;7400036;19;20001;-79
2022/08/26 14:30:24;;;;;;;11.45;3.20;;;;;;;;;;7394784;19;20010;-77
2022/08/26 14:32:55;;;;;;;5.40;2.65;;;;;;;;;;7401039;19;20036;-79
2022/08/26 14:35:23;;;;;;;6.20;2.67;;;;;;;;;;7398964;19;20010;-78
2022/08/26 14:37:50;;;;;;;11.35;3.38;;;;;;;;;;7400148;19;20011;-78
2022/08/26 14:40:18;;;;;;;7.45;3.15;;;;;;;;;;7399826;19;20375;-78
2022/08/26 14:42:48;;;;;;;7.00;2.97;;;;;;;;;;7400399;19;20013;-79
2022/08/26 14:45:17;;;;;;;5.97;2.85;;;;;;;;;;7399287;19;19998;-80
2022/08/26 14:47:44;;;;;;;9.80;2.70;;;;;;;;;;7401625;19;20033;-77
2022/08/26 14:50:14;;;;;;;6.55;3.00;;;;;;;;;;7399842;19;20035;-79
2022/08/26 14:55:24;;;;;;;5.50;2.47;;;;;;;;;;7401046;19;20059;-79
2022/08/26 14:57:49;;;;;;;6.90;2.65;;;;;;;;;;7402820;19;20070;-79
2022/08/26 15:00:15;;;;;;;4.05;2.65;;;;;;;;;;7399680;19;20014;-79
2022/08/26 15:02:41;;;;;;;5.43;2.38;;;;;;;;;;7396176;19;20094;-80
2022/08/26 15:05:07;;;;;;;10.00;2.80;;;;;;;;;;7397721;19;20337;-79
2022/08/26 15:07:33;;;;;;;3.75;2.47;;;;;;;;;;7400797;19;20015;-79
2022/08/26 15:09:58;;;;;;;5.28;2.60;;;;;;;;;;7400388;19;20017;-80
2022/08/26 15:12:23;;;;;;;5.65;2.90;;;;;;;;;;7400880;19;20006;-80
2022/08/26 15:14:49;;;;;;;9.10;2.63;;;;;;;;;;7403209;19;20027;-79
2022/08/26 15:17:14;;;;;;;3.45;2.20;;;;;;;;;;7406255;19;20030;-80
2022/08/26 15:19:39;;;;;;;15.75;2.47;;;;;;;;;;7406248;19;20018;-79